sensor_id;sensor_type;location;lat;lon;timestamp;temperature;humidity
14771;DHT22;7477;45.222;5.688;2023-11-21T00:01:42;9.50;99.90
14771;DHT22;7477;45.222;5.688;2023-11-21T00:05:02;9.40;99.90
14771;DHT22;7477;45.222;5.688;2023-11-21T00:08:23;9.50;99.90
14771;DHT22;7477;45.222;5.688;2023-11-21T00:11:42;9.50;99.90
14771;DHT22;7477;45.222;5.688;2023-11-21T00:15:03;9.40;99.90
14771;DHT22;7477;45.222;5.688;2023-11-21T00:18:24;9.50;99.90
14771;DHT22;7477;45.222;5.688;2023-11-21T00:21:43;9.50;99.90
14771;DHT22;7477;45.222;5.688;2023-11-21T00:25:04;9.50;99.90
14771;DHT22;7477;45.222;5.688;2023-11-21T00:28:23;9.50;99.90
14771;DHT22;7477;45.222;5.688;2023-11-21T00:31:42;9.50;99.90
14771;DHT22;7477;45.222;5.688;2023-11-21T00:35:02;9.60;99.90
14771;DHT22;7477;45.222;5.688;2023-11-21T00:38:21;9.80;99.90
14771;DHT22;7477;45.222;5.688;2023-11-21T00:41:40;9.90;99.90
14771;DHT22;7477;45.222;5.688;2023-11-21T00:45:00;9.90;99.90
14771;DHT22;7477;45.222;5.688;2023-11-21T00:48:20;9.90;99.90
14771;DHT22;7477;45.222;5.688;2023-11-21T00:51:39;10.00;99.90
14771;DHT22;7477;45.222;5.688;2023-11-21T00:54:58;10.00;99.90
14771;DHT22;7477;45.222;5.688;2023-11-21T00:58:21;10.10;99.90
14771;DHT22;7477;45.222;5.688;2023-11-21T01:01:40;10.20;99.90
14771;DHT22;7477;45.222;5.688;2023-11-21T01:05:00;10.10;99.90
14771;DHT22;7477;45.222;5.688;2023-11-21T01:08:19;10.00;99.90
14771;DHT22;7477;45.222;5.688;2023-11-21T01:11:39;10.00;99.90
14771;DHT22;7477;45.222;5.688;2023-11-21T01:14:58;10.00;99.90
14771;DHT22;7477;45.222;5.688;2023-11-21T01:18:19;10.00;99.90
14771;DHT22;7477;45.222;5.688;2023-11-21T01:21:38;10.10;99.90
14771;DHT22;7477;45.222;5.688;2023-11-21T01:24:58;10.10;99.90
14771;DHT22;7477;45.222;5.688;2023-11-21T01:28:17;10.10;99.90
14771;DHT22;7477;45.222;5.688;2023-11-21T01:31:36;10.10;99.90
14771;DHT22;7477;45.222;5.688;2023-11-21T01:34:56;10.10;99.90
14771;DHT22;7477;45.222;5.688;2023-11-21T01:38:15;10.10;99.90
14771;DHT22;7477;45.222;5.688;2023-11-21T01:41:36;10.10;99.90
14771;DHT22;7477;45.222;5.688;2023-11-21T01:44:56;10.00;99.90
14771;DHT22;7477;45.222;5.688;2023-11-21T01:48:15;10.00;99.90
14771;DHT22;7477;45.222;5.688;2023-11-21T01:51:36;10.00;99.90
14771;DHT22;7477;45.222;5.688;2023-11-21T01:54:56;10.00;99.90
14771;DHT22;7477;45.222;5.688;2023-11-21T01:58:17;10.00;99.90
14771;DHT22;7477;45.222;5.688;2023-11-21T02:01:36;10.00;99.90
14771;DHT22;7477;45.222;5.688;2023-11-21T02:04:56;9.90;99.90
14771;DHT22;7477;45.222;5.688;2023-11-21T02:08:15;9.90;99.90
14771;DHT22;7477;45.222;5.688;2023-11-21T02:11:35;9.80;99.90
14771;DHT22;7477;45.222;5.688;2023-11-21T02:14:54;9.80;99.90
14771;DHT22;7477;45.222;5.688;2023-11-21T02:18:13;9.70;99.90
14771;DHT22;7477;45.222;5.688;2023-11-21T02:21:34;9.70;99.90
14771;DHT22;7477;45.222;5.688;2023-11-21T02:24:54;9.70;99.90
14771;DHT22;7477;45.222;5.688;2023-11-21T02:28:14;9.70;99.90
14771;DHT22;7477;45.222;5.688;2023-11-21T02:31:35;9.70;99.90
14771;DHT22;7477;45.222;5.688;2023-11-21T02:34:54;9.60;99.90
14771;DHT22;7477;45.222;5.688;2023-11-21T02:38:14;9.50;99.90
14771;DHT22;7477;45.222;5.688;2023-11-21T02:41:35;9.40;99.90
14771;DHT22;7477;45.222;5.688;2023-11-21T02:44:54;9.20;99.90
14771;DHT22;7477;45.222;5.688;2023-11-21T02:48:13;9.00;99.90
14771;DHT22;7477;45.222;5.688;2023-11-21T02:51:33;9.00;99.90
14771;DHT22;7477;45.222;5.688;2023-11-21T02:54:52;8.90;99.90
14771;DHT22;7477;45.222;5.688;2023-11-21T02:58:12;8.80;99.90
14771;DHT22;7477;45.222;5.688;2023-11-21T03:01:32;8.80;99.90
14771;DHT22;7477;45.222;5.688;2023-11-21T03:04:51;8.80;99.90
14771;DHT22;7477;45.222;5.688;2023-11-21T03:08:10;8.70;99.90
14771;DHT22;7477;45.222;5.688;2023-11-21T03:11:29;8.60;99.90
14771;DHT22;7477;45.222;5.688;2023-11-21T03:14:48;8.50;99.90
14771;DHT22;7477;45.222;5.688;2023-11-21T03:18:07;8.40;99.90
14771;DHT22;7477;45.222;5.688;2023-11-21T03:21:26;8.50;99.90
14771;DHT22;7477;45.222;5.688;2023-11-21T03:24:46;8.30;99.90
14771;DHT22;7477;45.222;5.688;2023-11-21T03:28:05;8.20;99.90
14771;DHT22;7477;45.222;5.688;2023-11-21T03:31:24;8.30;99.90
14771;DHT22;7477;45.222;5.688;2023-11-21T03:34:57;8.30;99.90
14771;DHT22;7477;45.222;5.688;2023-11-21T03:38:17;8.40;99.90
14771;DHT22;7477;45.222;5.688;2023-11-21T03:41:36;8.30;99.90
14771;DHT22;7477;45.222;5.688;2023-11-21T03:44:55;8.30;99.90
14771;DHT22;7477;45.222;5.688;2023-11-21T03:48:14;8.40;99.90
14771;DHT22;7477;45.222;5.688;2023-11-21T03:51:33;8.30;99.90
14771;DHT22;7477;45.222;5.688;2023-11-21T03:54:52;8.30;99.90
14771;DHT22;7477;45.222;5.688;2023-11-21T03:58:12;8.50;99.90
14771;DHT22;7477;45.222;5.688;2023-11-21T04:01:31;8.40;99.90
14771;DHT22;7477;45.222;5.688;2023-11-21T04:04:51;8.40;99.90
14771;DHT22;7477;45.222;5.688;2023-11-21T04:08:10;8.50;99.90
14771;DHT22;7477;45.222;5.688;2023-11-21T04:11:29;8.60;99.90
14771;DHT22;7477;45.222;5.688;2023-11-21T04:14:49;8.70;99.90
14771;DHT22;7477;45.222;5.688;2023-11-21T04:18:08;8.70;99.90
14771;DHT22;7477;45.222;5.688;2023-11-21T04:21:28;8.80;99.90
14771;DHT22;7477;45.222;5.688;2023-11-21T04:24:47;8.90;99.90
14771;DHT22;7477;45.222;5.688;2023-11-21T04:28:06;9.00;99.90
14771;DHT22;7477;45.222;5.688;2023-11-21T04:31:25;9.10;99.90
14771;DHT22;7477;45.222;5.688;2023-11-21T04:34:44;9.30;99.90
14771;DHT22;7477;45.222;5.688;2023-11-21T04:38:03;9.20;99.90
14771;DHT22;7477;45.222;5.688;2023-11-21T04:41:22;9.40;99.90
14771;DHT22;7477;45.222;5.688;2023-11-21T04:44:41;9.40;99.90
14771;DHT22;7477;45.222;5.688;2023-11-21T04:48:00;9.50;99.90
14771;DHT22;7477;45.222;5.688;2023-11-21T04:51:19;9.50;99.90
14771;DHT22;7477;45.222;5.688;2023-11-21T04:54:38;9.40;99.90
14771;DHT22;7477;45.222;5.688;2023-11-21T04:57:59;9.40;99.90
14771;DHT22;7477;45.222;5.688;2023-11-21T05:01:18;9.50;99.90
14771;DHT22;7477;45.222;5.688;2023-11-21T05:04:37;9.50;99.90
14771;DHT22;7477;45.222;5.688;2023-11-21T05:07:56;9.50;99.90
14771;DHT22;7477;45.222;5.688;2023-11-21T05:11:25;9.60;99.90
14771;DHT22;7477;45.222;5.688;2023-11-21T05:14:44;9.60;99.90
14771;DHT22;7477;45.222;5.688;2023-11-21T05:18:04;9.60;99.90
14771;DHT22;7477;45.222;5.688;2023-11-21T05:21:27;9.60;99.90
14771;DHT22;7477;45.222;5.688;2023-11-21T05:24:46;9.50;99.90
14771;DHT22;7477;45.222;5.688;2023-11-21T05:28:05;9.50;99.90
14771;DHT22;7477;45.222;5.688;2023-11-21T05:31:25;9.50;99.90
14771;DHT22;7477;45.222;5.688;2023-11-21T05:34:46;9.60;99.90
14771;DHT22;7477;45.222;5.688;2023-11-21T05:38:05;9.60;99.90
14771;DHT22;7477;45.222;5.688;2023-11-21T05:41:24;9.60;99.90
14771;DHT22;7477;45.222;5.688;2023-11-21T05:44:44;9.70;99.90
14771;DHT22;7477;45.222;5.688;2023-11-21T05:48:04;9.70;99.90
14771;DHT22;7477;45.222;5.688;2023-11-21T05:51:24;9.60;99.90
14771;DHT22;7477;45.222;5.688;2023-11-21T05:54:44;9.60;99.90
14771;DHT22;7477;45.222;5.688;2023-11-21T05:58:03;9.60;99.90
14771;DHT22;7477;45.222;5.688;2023-11-21T06:01:22;9.60;99.90
14771;DHT22;7477;45.222;5.688;2023-11-21T06:04:41;9.50;99.90
14771;DHT22;7477;45.222;5.688;2023-11-21T06:08:00;9.50;99.90
14771;DHT22;7477;45.222;5.688;2023-11-21T06:11:20;9.50;99.90
14771;DHT22;7477;45.222;5.688;2023-11-21T06:14:39;9.40;99.90
14771;DHT22;7477;45.222;5.688;2023-11-21T06:17:58;9.40;99.90
14771;DHT22;7477;45.222;5.688;2023-11-21T06:21:17;9.30;99.90
14771;DHT22;7477;45.222;5.688;2023-11-21T06:24:37;9.40;99.90
14771;DHT22;7477;45.222;5.688;2023-11-21T06:27:57;9.30;99.90
14771;DHT22;7477;45.222;5.688;2023-11-21T06:31:16;9.30;99.90
14771;DHT22;7477;45.222;5.688;2023-11-21T06:34:36;9.30;99.90
14771;DHT22;7477;45.222;5.688;2023-11-21T06:37:56;9.30;99.90
14771;DHT22;7477;45.222;5.688;2023-11-21T06:41:14;9.30;99.90
14771;DHT22;7477;45.222;5.688;2023-11-21T06:44:34;9.30;99.90
14771;DHT22;7477;45.222;5.688;2023-11-21T06:47:54;9.30;99.90
14771;DHT22;7477;45.222;5.688;2023-11-21T06:51:13;9.30;99.90
14771;DHT22;7477;45.222;5.688;2023-11-21T06:54:32;9.20;99.90
14771;DHT22;7477;45.222;5.688;2023-11-21T06:57:51;9.10;99.90
14771;DHT22;7477;45.222;5.688;2023-11-21T07:01:12;9.10;99.90
14771;DHT22;7477;45.222;5.688;2023-11-21T07:04:31;9.10;99.90
14771;DHT22;7477;45.222;5.688;2023-11-21T07:07:51;9.10;99.90
14771;DHT22;7477;45.222;5.688;2023-11-21T07:11:11;9.10;99.90
14771;DHT22;7477;45.222;5.688;2023-11-21T07:14:31;9.10;99.90
14771;DHT22;7477;45.222;5.688;2023-11-21T07:17:51;9.10;99.90
14771;DHT22;7477;45.222;5.688;2023-11-21T07:21:11;9.20;99.90
14771;DHT22;7477;45.222;5.688;2023-11-21T07:24:34;9.20;99.90
14771;DHT22;7477;45.222;5.688;2023-11-21T07:27:53;9.20;99.90
14771;DHT22;7477;45.222;5.688;2023-11-21T07:31:14;9.20;99.90
14771;DHT22;7477;45.222;5.688;2023-11-21T07:34:33;9.30;99.90
14771;DHT22;7477;45.222;5.688;2023-11-21T07:37:52;9.20;99.90
14771;DHT22;7477;45.222;5.688;2023-11-21T07:41:11;9.20;99.90
14771;DHT22;7477;45.222;5.688;2023-11-21T07:44:34;9.20;99.90
14771;DHT22;7477;45.222;5.688;2023-11-21T07:47:54;9.20;99.90
14771;DHT22;7477;45.222;5.688;2023-11-21T07:51:14;9.20;99.90
14771;DHT22;7477;45.222;5.688;2023-11-21T07:54:33;9.30;99.90
14771;DHT22;7477;45.222;5.688;2023-11-21T07:57:54;9.30;99.90
14771;DHT22;7477;45.222;5.688;2023-11-21T08:01:13;9.30;99.90
14771;DHT22;7477;45.222;5.688;2023-11-21T08:04:33;9.30;99.90
14771;DHT22;7477;45.222;5.688;2023-11-21T08:07:53;9.30;99.90
14771;DHT22;7477;45.222;5.688;2023-11-21T08:11:12;9.40;99.90
14771;DHT22;7477;45.222;5.688;2023-11-21T08:14:31;9.40;99.90
14771;DHT22;7477;45.222;5.688;2023-11-21T08:17:50;9.50;99.90
14771;DHT22;7477;45.222;5.688;2023-11-21T08:21:12;9.60;99.90
14771;DHT22;7477;45.222;5.688;2023-11-21T08:24:32;9.60;99.90
14771;DHT22;7477;45.222;5.688;2023-11-21T08:27:51;9.50;99.90
14771;DHT22;7477;45.222;5.688;2023-11-21T08:31:10;9.50;99.90
14771;DHT22;7477;45.222;5.688;2023-11-21T08:34:29;9.60;99.90
14771;DHT22;7477;45.222;5.688;2023-11-21T08:37:51;9.50;99.90
14771;DHT22;7477;45.222;5.688;2023-11-21T08:41:11;9.50;99.90
14771;DHT22;7477;45.222;5.688;2023-11-21T08:44:31;9.40;99.90
14771;DHT22;7477;45.222;5.688;2023-11-21T08:47:51;9.50;99.90
14771;DHT22;7477;45.222;5.688;2023-11-21T08:51:10;9.40;99.90
14771;DHT22;7477;45.222;5.688;2023-11-21T08:54:33;9.50;99.90
14771;DHT22;7477;45.222;5.688;2023-11-21T08:57:53;9.50;99.90
14771;DHT22;7477;45.222;5.688;2023-11-21T09:01:12;9.50;99.90
14771;DHT22;7477;45.222;5.688;2023-11-21T09:04:32;9.60;99.90
14771;DHT22;7477;45.222;5.688;2023-11-21T09:07:51;9.80;99.90
14771;DHT22;7477;45.222;5.688;2023-11-21T09:11:10;9.80;99.90
14771;DHT22;7477;45.222;5.688;2023-11-21T09:14:29;9.80;99.90
14771;DHT22;7477;45.222;5.688;2023-11-21T09:17:48;9.90;99.90
14771;DHT22;7477;45.222;5.688;2023-11-21T09:21:07;9.90;99.90
14771;DHT22;7477;45.222;5.688;2023-11-21T09:24:27;9.80;99.90
14771;DHT22;7477;45.222;5.688;2023-11-21T09:27:47;9.80;99.90
14771;DHT22;7477;45.222;5.688;2023-11-21T09:31:06;9.80;99.90
14771;DHT22;7477;45.222;5.688;2023-11-21T09:34:28;9.70;99.90
14771;DHT22;7477;45.222;5.688;2023-11-21T09:37:47;9.70;99.90
14771;DHT22;7477;45.222;5.688;2023-11-21T09:41:11;9.80;99.90
14771;DHT22;7477;45.222;5.688;2023-11-21T09:44:57;9.90;99.90
14771;DHT22;7477;45.222;5.688;2023-11-21T09:48:20;10.00;99.90
14771;DHT22;7477;45.222;5.688;2023-11-21T09:51:44;10.00;99.90
14771;DHT22;7477;45.222;5.688;2023-11-21T09:55:04;10.00;99.90
14771;DHT22;7477;45.222;5.688;2023-11-21T09:58:24;10.10;99.90
14771;DHT22;7477;45.222;5.688;2023-11-21T10:01:44;10.10;99.90
14771;DHT22;7477;45.222;5.688;2023-11-21T10:05:06;10.10;99.90
14771;DHT22;7477;45.222;5.688;2023-11-21T10:08:27;10.20;99.90
14771;DHT22;7477;45.222;5.688;2023-11-21T10:11:47;10.20;99.90
14771;DHT22;7477;45.222;5.688;2023-11-21T10:15:10;10.20;99.90
14771;DHT22;7477;45.222;5.688;2023-11-21T10:18:32;10.20;99.90
14771;DHT22;7477;45.222;5.688;2023-11-21T10:21:53;10.10;99.90
14771;DHT22;7477;45.222;5.688;2023-11-21T10:25:13;10.10;99.90
14771;DHT22;7477;45.222;5.688;2023-11-21T10:28:39;10.20;99.90
14771;DHT22;7477;45.222;5.688;2023-11-21T10:31:59;10.10;99.90
14771;DHT22;7477;45.222;5.688;2023-11-21T10:35:19;10.20;99.90
14771;DHT22;7477;45.222;5.688;2023-11-21T10:38:42;10.20;99.90
14771;DHT22;7477;45.222;5.688;2023-11-21T10:42:02;10.20;99.90
14771;DHT22;7477;45.222;5.688;2023-11-21T10:45:23;10.20;99.90
14771;DHT22;7477;45.222;5.688;2023-11-21T10:48:42;10.20;99.90
14771;DHT22;7477;45.222;5.688;2023-11-21T10:52:01;10.20;99.90
14771;DHT22;7477;45.222;5.688;2023-11-21T10:55:20;10.30;99.90
14771;DHT22;7477;45.222;5.688;2023-11-21T10:58:43;10.30;99.90
14771;DHT22;7477;45.222;5.688;2023-11-21T11:02:23;10.30;99.90
14771;DHT22;7477;45.222;5.688;2023-11-21T11:05:53;10.30;99.90
14771;DHT22;7477;45.222;5.688;2023-11-21T11:09:13;10.20;99.90
14771;DHT22;7477;45.222;5.688;2023-11-21T11:12:33;10.20;99.90
14771;DHT22;7477;45.222;5.688;2023-11-21T11:16:01;10.20;99.90
14771;DHT22;7477;45.222;5.688;2023-11-21T11:19:21;10.20;99.90
14771;DHT22;7477;45.222;5.688;2023-11-21T11:22:42;10.20;99.90
14771;DHT22;7477;45.222;5.688;2023-11-21T11:37:00;10.10;99.90
14771;DHT22;7477;45.222;5.688;2023-11-21T11:40:22;10.30;99.90
14771;DHT22;7477;45.222;5.688;2023-11-21T11:43:42;10.20;99.90
14771;DHT22;7477;45.222;5.688;2023-11-21T11:47:13;10.10;99.90
14771;DHT22;7477;45.222;5.688;2023-11-21T11:50:33;10.20;99.90
14771;DHT22;7477;45.222;5.688;2023-11-21T11:53:53;10.30;99.90
14771;DHT22;7477;45.222;5.688;2023-11-21T11:57:13;10.30;99.90
14771;DHT22;7477;45.222;5.688;2023-11-21T12:07:50;10.20;99.90
14771;DHT22;7477;45.222;5.688;2023-11-21T12:11:12;10.20;99.90
14771;DHT22;7477;45.222;5.688;2023-11-21T12:14:32;10.20;99.90
14771;DHT22;7477;45.222;5.688;2023-11-21T12:17:52;10.20;99.90
14771;DHT22;7477;45.222;5.688;2023-11-21T12:21:13;10.30;99.90
14771;DHT22;7477;45.222;5.688;2023-11-21T12:24:33;10.20;99.90
14771;DHT22;7477;45.222;5.688;2023-11-21T12:27:53;10.20;99.90
14771;DHT22;7477;45.222;5.688;2023-11-21T12:31:12;10.30;99.90
14771;DHT22;7477;45.222;5.688;2023-11-21T12:34:31;10.30;99.90
14771;DHT22;7477;45.222;5.688;2023-11-21T12:37:54;10.30;99.90
14771;DHT22;7477;45.222;5.688;2023-11-21T12:41:16;10.40;99.90
14771;DHT22;7477;45.222;5.688;2023-11-21T12:44:36;10.40;99.90
14771;DHT22;7477;45.222;5.688;2023-11-21T12:48:01;10.40;99.90
14771;DHT22;7477;45.222;5.688;2023-11-21T12:51:26;10.50;99.90
14771;DHT22;7477;45.222;5.688;2023-11-21T12:54:46;10.50;99.90
14771;DHT22;7477;45.222;5.688;2023-11-21T12:58:09;10.50;99.90
14771;DHT22;7477;45.222;5.688;2023-11-21T13:01:29;10.50;99.90
14771;DHT22;7477;45.222;5.688;2023-11-21T13:04:52;10.50;99.90
14771;DHT22;7477;45.222;5.688;2023-11-21T13:08:13;10.50;99.90
14771;DHT22;7477;45.222;5.688;2023-11-21T13:11:34;10.40;99.90
14771;DHT22;7477;45.222;5.688;2023-11-21T13:14:56;10.40;99.90
14771;DHT22;7477;45.222;5.688;2023-11-21T13:18:15;10.50;99.90
14771;DHT22;7477;45.222;5.688;2023-11-21T13:21:36;10.50;99.90
14771;DHT22;7477;45.222;5.688;2023-11-21T13:24:55;10.40;99.90
14771;DHT22;7477;45.222;5.688;2023-11-21T13:28:16;10.40;99.90
14771;DHT22;7477;45.222;5.688;2023-11-21T13:31:37;10.40;99.90
14771;DHT22;7477;45.222;5.688;2023-11-21T13:34:58;10.20;99.90
14771;DHT22;7477;45.222;5.688;2023-11-21T13:38:19;10.10;99.90
14771;DHT22;7477;45.222;5.688;2023-11-21T13:41:51;10.10;99.90
14771;DHT22;7477;45.222;5.688;2023-11-21T13:45:13;10.10;99.90
14771;DHT22;7477;45.222;5.688;2023-11-21T13:48:33;10.10;99.90
14771;DHT22;7477;45.222;5.688;2023-11-21T13:52:07;10.10;99.90
14771;DHT22;7477;45.222;5.688;2023-11-21T13:55:26;10.10;99.90
14771;DHT22;7477;45.222;5.688;2023-11-21T13:58:46;10.10;99.90
14771;DHT22;7477;45.222;5.688;2023-11-21T14:02:10;10.10;99.90
14771;DHT22;7477;45.222;5.688;2023-11-21T14:05:36;10.10;99.90
14771;DHT22;7477;45.222;5.688;2023-11-21T14:08:55;10.00;99.90
14771;DHT22;7477;45.222;5.688;2023-11-21T14:12:16;9.90;99.90
14771;DHT22;7477;45.222;5.688;2023-11-21T14:15:39;9.90;99.90
14771;DHT22;7477;45.222;5.688;2023-11-21T14:19:02;10.00;99.90
14771;DHT22;7477;45.222;5.688;2023-11-21T14:22:33;10.00;99.90
14771;DHT22;7477;45.222;5.688;2023-11-21T14:25:53;10.00;99.90
14771;DHT22;7477;45.222;5.688;2023-11-21T14:29:13;10.00;99.90
14771;DHT22;7477;45.222;5.688;2023-11-21T14:32:38;9.90;99.90
14771;DHT22;7477;45.222;5.688;2023-11-21T14:35:58;9.80;99.90
14771;DHT22;7477;45.222;5.688;2023-11-21T14:39:18;9.80;99.90
14771;DHT22;7477;45.222;5.688;2023-11-21T14:42:45;9.90;99.90
14771;DHT22;7477;45.222;5.688;2023-11-21T14:46:06;9.90;99.90
14771;DHT22;7477;45.222;5.688;2023-11-21T14:49:28;9.90;99.90
14771;DHT22;7477;45.222;5.688;2023-11-21T14:53:04;9.90;99.90
14771;DHT22;7477;45.222;5.688;2023-11-21T14:56:26;10.00;99.90
14771;DHT22;7477;45.222;5.688;2023-11-21T14:59:50;9.90;99.90
14771;DHT22;7477;45.222;5.688;2023-11-21T15:03:17;9.90;99.90
14771;DHT22;7477;45.222;5.688;2023-11-21T15:06:51;9.90;99.90
14771;DHT22;7477;45.222;5.688;2023-11-21T15:10:13;9.90;99.90
14771;DHT22;7477;45.222;5.688;2023-11-21T15:13:33;9.90;99.90
14771;DHT22;7477;45.222;5.688;2023-11-21T15:16:52;9.90;99.90
14771;DHT22;7477;45.222;5.688;2023-11-21T15:20:18;9.90;99.90
14771;DHT22;7477;45.222;5.688;2023-11-21T15:23:40;9.90;99.90
14771;DHT22;7477;45.222;5.688;2023-11-21T15:27:00;9.80;99.90
14771;DHT22;7477;45.222;5.688;2023-11-21T15:30:22;9.80;99.90
14771;DHT22;7477;45.222;5.688;2023-11-21T15:33:44;9.80;99.90
14771;DHT22;7477;45.222;5.688;2023-11-21T15:37:05;9.80;99.90
14771;DHT22;7477;45.222;5.688;2023-11-21T15:40:27;9.70;99.90
14771;DHT22;7477;45.222;5.688;2023-11-21T15:43:46;9.70;99.90
14771;DHT22;7477;45.222;5.688;2023-11-21T15:47:08;9.60;99.90
14771;DHT22;7477;45.222;5.688;2023-11-21T15:50:28;9.70;99.90
14771;DHT22;7477;45.222;5.688;2023-11-21T15:53:50;9.70;99.90
14771;DHT22;7477;45.222;5.688;2023-11-21T15:57:10;9.70;99.90
14771;DHT22;7477;45.222;5.688;2023-11-21T16:00:30;9.70;99.90
14771;DHT22;7477;45.222;5.688;2023-11-21T16:03:49;9.70;99.90
14771;DHT22;7477;45.222;5.688;2023-11-21T16:07:09;9.70;99.90
14771;DHT22;7477;45.222;5.688;2023-11-21T16:10:30;9.70;99.90
14771;DHT22;7477;45.222;5.688;2023-11-21T16:13:49;9.70;99.90
14771;DHT22;7477;45.222;5.688;2023-11-21T16:17:08;9.70;99.90
14771;DHT22;7477;45.222;5.688;2023-11-21T16:20:28;9.70;99.90
14771;DHT22;7477;45.222;5.688;2023-11-21T16:23:47;9.60;99.90
14771;DHT22;7477;45.222;5.688;2023-11-21T16:27:06;9.60;99.90
14771;DHT22;7477;45.222;5.688;2023-11-21T16:30:29;9.50;99.90
14771;DHT22;7477;45.222;5.688;2023-11-21T16:33:50;9.50;99.90
14771;DHT22;7477;45.222;5.688;2023-11-21T16:37:09;9.50;99.90
14771;DHT22;7477;45.222;5.688;2023-11-21T16:40:28;9.40;99.90
14771;DHT22;7477;45.222;5.688;2023-11-21T16:43:47;9.40;99.90
14771;DHT22;7477;45.222;5.688;2023-11-21T16:47:07;9.30;99.90
14771;DHT22;7477;45.222;5.688;2023-11-21T16:50:26;9.20;99.90
14771;DHT22;7477;45.222;5.688;2023-11-21T16:53:45;9.30;99.90
14771;DHT22;7477;45.222;5.688;2023-11-21T16:57:04;9.30;99.90
14771;DHT22;7477;45.222;5.688;2023-11-21T17:00:23;9.20;99.90
14771;DHT22;7477;45.222;5.688;2023-11-21T17:03:43;9.20;99.90
14771;DHT22;7477;45.222;5.688;2023-11-21T17:07:03;9.20;99.90
14771;DHT22;7477;45.222;5.688;2023-11-21T17:10:22;9.20;99.90
14771;DHT22;7477;45.222;5.688;2023-11-21T17:13:43;9.20;99.90
14771;DHT22;7477;45.222;5.688;2023-11-21T17:17:02;9.20;99.90
14771;DHT22;7477;45.222;5.688;2023-11-21T17:20:22;9.20;99.90
14771;DHT22;7477;45.222;5.688;2023-11-21T17:23:41;9.30;99.90
14771;DHT22;7477;45.222;5.688;2023-11-21T17:27:01;9.30;99.90
14771;DHT22;7477;45.222;5.688;2023-11-21T17:30:20;9.30;99.90
14771;DHT22;7477;45.222;5.688;2023-11-21T17:33:40;9.30;99.90
14771;DHT22;7477;45.222;5.688;2023-11-21T17:37:01;9.30;99.90
14771;DHT22;7477;45.222;5.688;2023-11-21T17:40:23;9.30;99.90
14771;DHT22;7477;45.222;5.688;2023-11-21T17:43:45;9.30;99.90
14771;DHT22;7477;45.222;5.688;2023-11-21T17:47:04;9.20;99.90
14771;DHT22;7477;45.222;5.688;2023-11-21T17:50:23;9.10;99.90
14771;DHT22;7477;45.222;5.688;2023-11-21T17:53:43;9.00;99.90
14771;DHT22;7477;45.222;5.688;2023-11-21T17:57:03;8.90;99.90
14771;DHT22;7477;45.222;5.688;2023-11-21T18:00:23;8.90;99.90
14771;DHT22;7477;45.222;5.688;2023-11-21T18:03:45;8.90;99.90
14771;DHT22;7477;45.222;5.688;2023-11-21T18:07:04;8.90;99.90
14771;DHT22;7477;45.222;5.688;2023-11-21T18:10:23;9.00;99.90
14771;DHT22;7477;45.222;5.688;2023-11-21T18:13:43;9.00;99.90
14771;DHT22;7477;45.222;5.688;2023-11-21T18:17:02;8.90;99.90
14771;DHT22;7477;45.222;5.688;2023-11-21T18:20:22;9.00;99.90
14771;DHT22;7477;45.222;5.688;2023-11-21T18:23:41;9.00;99.90
14771;DHT22;7477;45.222;5.688;2023-11-21T18:27:00;9.10;99.90
14771;DHT22;7477;45.222;5.688;2023-11-21T18:30:19;9.10;99.90
14771;DHT22;7477;45.222;5.688;2023-11-21T18:33:39;9.10;99.90
14771;DHT22;7477;45.222;5.688;2023-11-21T18:36:58;9.00;99.90
14771;DHT22;7477;45.222;5.688;2023-11-21T18:40:18;9.00;99.90
14771;DHT22;7477;45.222;5.688;2023-11-21T18:43:39;9.00;99.90
14771;DHT22;7477;45.222;5.688;2023-11-21T18:46:58;9.00;99.90
14771;DHT22;7477;45.222;5.688;2023-11-21T18:50:18;9.00;99.90
14771;DHT22;7477;45.222;5.688;2023-11-21T18:53:39;9.00;99.90
14771;DHT22;7477;45.222;5.688;2023-11-21T18:56:59;9.00;99.90
14771;DHT22;7477;45.222;5.688;2023-11-21T19:00:18;9.00;99.90
14771;DHT22;7477;45.222;5.688;2023-11-21T19:03:38;9.00;99.90
14771;DHT22;7477;45.222;5.688;2023-11-21T19:07:00;9.00;99.90
14771;DHT22;7477;45.222;5.688;2023-11-21T19:10:21;8.90;99.90
14771;DHT22;7477;45.222;5.688;2023-11-21T19:13:42;9.00;99.90
14771;DHT22;7477;45.222;5.688;2023-11-21T19:17:01;9.00;99.90
14771;DHT22;7477;45.222;5.688;2023-11-21T19:20:21;9.00;99.90
14771;DHT22;7477;45.222;5.688;2023-11-21T19:23:51;9.00;99.90
14771;DHT22;7477;45.222;5.688;2023-11-21T19:27:11;9.00;99.90
14771;DHT22;7477;45.222;5.688;2023-11-21T19:30:31;9.00;99.90
14771;DHT22;7477;45.222;5.688;2023-11-21T19:33:51;9.00;99.90
14771;DHT22;7477;45.222;5.688;2023-11-21T19:37:12;9.00;99.90
14771;DHT22;7477;45.222;5.688;2023-11-21T19:40:31;9.00;99.90
14771;DHT22;7477;45.222;5.688;2023-11-21T19:43:52;9.40;99.90
14771;DHT22;7477;45.222;5.688;2023-11-21T19:47:11;9.10;99.90
14771;DHT22;7477;45.222;5.688;2023-11-21T19:50:31;9.10;99.90
14771;DHT22;7477;45.222;5.688;2023-11-21T19:53:50;9.10;99.90
14771;DHT22;7477;45.222;5.688;2023-11-21T19:57:10;9.10;99.90
14771;DHT22;7477;45.222;5.688;2023-11-21T20:00:33;9.10;99.90
14771;DHT22;7477;45.222;5.688;2023-11-21T20:03:52;9.10;99.90
14771;DHT22;7477;45.222;5.688;2023-11-21T20:07:13;9.20;99.90
14771;DHT22;7477;45.222;5.688;2023-11-21T20:10:33;9.10;99.90
14771;DHT22;7477;45.222;5.688;2023-11-21T20:13:53;9.00;99.90
14771;DHT22;7477;45.222;5.688;2023-11-21T20:17:12;9.10;99.90
14771;DHT22;7477;45.222;5.688;2023-11-21T20:20:33;9.10;99.90
14771;DHT22;7477;45.222;5.688;2023-11-21T20:23:52;9.00;99.90
14771;DHT22;7477;45.222;5.688;2023-11-21T20:27:12;9.00;99.90
14771;DHT22;7477;45.222;5.688;2023-11-21T20:30:33;9.00;99.90
14771;DHT22;7477;45.222;5.688;2023-11-21T20:33:53;9.00;99.90
14771;DHT22;7477;45.222;5.688;2023-11-21T20:37:12;9.00;99.90
14771;DHT22;7477;45.222;5.688;2023-11-21T20:40:33;9.00;99.90
14771;DHT22;7477;45.222;5.688;2023-11-21T20:43:52;8.90;99.90
14771;DHT22;7477;45.222;5.688;2023-11-21T20:47:12;8.90;99.90
14771;DHT22;7477;45.222;5.688;2023-11-21T20:50:31;8.90;99.90
14771;DHT22;7477;45.222;5.688;2023-11-21T20:53:50;8.90;99.90
14771;DHT22;7477;45.222;5.688;2023-11-21T20:57:10;8.90;99.90
14771;DHT22;7477;45.222;5.688;2023-11-21T21:00:29;8.90;99.90
14771;DHT22;7477;45.222;5.688;2023-11-21T21:03:48;8.80;99.90
14771;DHT22;7477;45.222;5.688;2023-11-21T21:07:08;8.80;99.90
14771;DHT22;7477;45.222;5.688;2023-11-21T21:10:28;8.80;99.90
14771;DHT22;7477;45.222;5.688;2023-11-21T21:13:48;8.80;99.90
14771;DHT22;7477;45.222;5.688;2023-11-21T21:17:12;8.80;99.90
14771;DHT22;7477;45.222;5.688;2023-11-21T21:20:31;8.80;99.90
14771;DHT22;7477;45.222;5.688;2023-11-21T21:23:52;8.80;99.90
14771;DHT22;7477;45.222;5.688;2023-11-21T21:27:12;8.80;99.90
14771;DHT22;7477;45.222;5.688;2023-11-21T21:30:31;8.80;99.90
14771;DHT22;7477;45.222;5.688;2023-11-21T21:33:50;8.80;99.90
14771;DHT22;7477;45.222;5.688;2023-11-21T21:37:10;8.80;99.90
14771;DHT22;7477;45.222;5.688;2023-11-21T21:40:29;8.80;99.90
14771;DHT22;7477;45.222;5.688;2023-11-21T21:43:51;8.70;99.90
14771;DHT22;7477;45.222;5.688;2023-11-21T21:47:10;8.70;99.90
14771;DHT22;7477;45.222;5.688;2023-11-21T21:50:30;8.70;99.90
14771;DHT22;7477;45.222;5.688;2023-11-21T21:53:50;8.70;99.90
14771;DHT22;7477;45.222;5.688;2023-11-21T21:57:09;8.70;99.90
14771;DHT22;7477;45.222;5.688;2023-11-21T22:00:28;8.80;99.90